createdAt,value
2022-10-20T05:30:37.500Z,12.10
2022-10-20T05:33:05.781Z,12.10
2022-10-20T05:35:33.699Z,12.10
2022-10-20T05:38:01.488Z,12.10
2022-10-20T05:40:29.277Z,12.10
2022-10-20T05:42:57.606Z,12.10
2022-10-20T05:45:25.465Z,12.10
2022-10-20T05:47:54.635Z,12.10
2022-10-20T05:50:22.436Z,12.10
2022-10-20T05:52:50.239Z,12.10
2022-10-20T05:55:18.244Z,12.10
2022-10-20T05:57:46.029Z,12.10
2022-10-20T06:00:15.890Z,12.10
2022-10-20T06:02:43.722Z,12.10
2022-10-20T06:05:12.851Z,12.00
2022-10-20T06:07:40.681Z,12.10
2022-10-20T06:10:08.940Z,12.10
2022-10-20T06:12:36.993Z,12.10
2022-10-20T06:15:05.543Z,12.10
2022-10-20T06:17:33.470Z,12.10
2022-10-20T06:20:01.310Z,12.10
2022-10-20T06:22:30.439Z,12.10
2022-10-20T06:24:58.224Z,12.10
2022-10-20T06:27:26.190Z,12.10
2022-10-20T06:29:54.767Z,12.10
2022-10-20T06:32:22.579Z,12.10
2022-10-20T06:34:50.387Z,12.10
2022-10-20T06:37:18.171Z,12.10
2022-10-20T06:39:47.402Z,12.10
2022-10-20T06:42:15.195Z,12.10
2022-10-20T06:44:44.643Z,12.10
2022-10-20T06:47:12.509Z,12.10
2022-10-20T06:49:40.283Z,12.10
2022-10-20T06:52:08.150Z,12.10
2022-10-20T06:54:36.038Z,12.10
2022-10-20T06:57:05.196Z,12.10
2022-10-20T06:59:33.123Z,12.10
2022-10-20T07:02:01.799Z,12.10
2022-10-20T07:04:29.720Z,12.10
2022-10-20T07:06:57.607Z,12.10
2022-10-20T07:09:25.477Z,12.10
2022-10-20T07:11:53.776Z,12.10
2022-10-20T07:14:23.147Z,12.10
2022-10-20T07:16:51.008Z,12.10
2022-10-20T07:19:18.821Z,12.10
2022-10-20T07:21:46.838Z,12.10
2022-10-20T07:24:15.599Z,12.20
2022-10-20T07:26:43.720Z,12.20
2022-10-20T07:29:12.088Z,12.20
2022-10-20T07:31:42.778Z,12.20
2022-10-20T07:34:28.096Z,12.20
2022-10-20T07:36:57.035Z,12.20
2022-10-20T07:39:25.033Z,12.20
2022-10-20T07:41:52.866Z,12.20
2022-10-20T07:44:20.956Z,12.20
2022-10-20T07:46:50.224Z,12.30
2022-10-20T07:49:43.536Z,12.30
2022-10-20T07:52:06.377Z,12.30
2022-10-20T07:54:34.561Z,12.30
2022-10-20T07:57:02.756Z,12.30
2022-10-20T07:59:30.756Z,12.40
2022-10-20T08:02:00.567Z,12.40
2022-10-20T08:04:28.944Z,12.40
2022-10-20T08:06:56.887Z,12.40
2022-10-20T08:09:25.002Z,12.40
2022-10-20T08:11:55.453Z,12.50
2022-10-20T08:14:27.007Z,12.50
2022-10-20T08:16:57.642Z,12.60
2022-10-20T08:22:08.833Z,12.60
2022-10-20T08:24:36.842Z,12.60
2022-10-20T08:27:05.007Z,12.70
2022-10-20T08:29:32.951Z,12.70
2022-10-20T08:32:00.885Z,12.70
2022-10-20T08:34:30.287Z,12.80
2022-10-20T08:36:58.322Z,12.80
2022-10-20T08:39:26.174Z,12.80
2022-10-20T08:42:07.607Z,12.80
2022-10-20T08:44:38.235Z,12.90
2022-10-20T08:47:15.512Z,12.90
2022-10-20T08:49:46.928Z,13.00
2022-10-20T08:52:16.151Z,13.00
2022-10-20T08:54:44.237Z,13.00
2022-10-20T08:57:23.378Z,13.10
2022-10-20T08:59:53.450Z,13.10
2022-10-20T09:02:25.058Z,13.10
2022-10-20T09:04:57.369Z,13.20
2022-10-20T09:07:29.151Z,13.20
2022-10-20T09:10:08.533Z,13.30
2022-10-20T09:12:39.169Z,13.30
2022-10-20T09:15:09.564Z,13.40
2022-10-20T09:17:37.701Z,13.40
2022-10-20T09:20:16.850Z,13.50
2022-10-20T09:22:44.796Z,13.50
2022-10-20T09:25:17.349Z,13.60
2022-10-20T09:27:45.673Z,13.60
2022-10-20T09:30:16.761Z,13.70
2022-10-20T09:32:56.717Z,13.70
2022-10-20T09:35:31.304Z,13.80
2022-10-20T09:38:04.580Z,13.90
2022-10-20T09:40:32.944Z,13.90
2022-10-20T09:43:03.294Z,14.00
2022-10-20T09:45:33.541Z,14.00
2022-10-20T09:48:18.387Z,14.10
2022-10-20T09:50:52.067Z,14.10
2022-10-20T09:53:22.429Z,14.20
2022-10-20T09:55:52.087Z,14.20
2022-10-20T09:58:24.884Z,14.20
2022-10-20T10:01:02.612Z,14.30
2022-10-20T10:03:40.792Z,14.30
2022-10-20T10:06:28.529Z,14.40
